<?xml version="1.0" encoding="UTF-8" standalone="no" ?>
<gpx xmlns="http://www.topografix.com/GPX/1/1" xmlns:xsi="http://www.w3.org/2001/XMLSchema-instance" xsi:schemaLocation="http://www.topografix.com/GPX/1/1 http://www.topografix.com/GPX/1/1/gpx.xsd" version="1.1" creator="VisuGPX - https://www.visugpx.com">
  <metadata>
    <name>Repérage grotte</name>
    <desc><![CDATA[Repérage grotte]]></desc>
  </metadata>
  <trk>
    <name><![CDATA[ACTIVE LOG105957]]></name>
    <trkseg>
      <trkpt lat="43.81484" lon="3.69122">
        <ele>172.477</ele>
        <time>2012-08-10T08:59:57Z</time>
      </trkpt>
      <trkpt lat="43.8148" lon="3.69122">
        <ele>172.277</ele>
        <time>2012-08-10T09:00:00Z</time>
      </trkpt>
      <trkpt lat="43.81474" lon="3.691">
        <ele>172.454</ele>
        <time>2012-08-10T09:00:13Z</time>
      </trkpt>
      <trkpt lat="43.81473" lon="3.69087">
        <ele>173.307</ele>
        <time>2012-08-10T09:00:22Z</time>
      </trkpt>
      <trkpt lat="43.81472" lon="3.69076">
        <ele>172.755</ele>
        <time>2012-08-10T09:00:28Z</time>
      </trkpt>
      <trkpt lat="43.81469" lon="3.69051">
        <ele>173.553</ele>
        <time>2012-08-10T09:00:42Z</time>
      </trkpt>
      <trkpt lat="43.81464" lon="3.69016">
        <ele>173.746</ele>
        <time>2012-08-10T09:01:05Z</time>
      </trkpt>
      <trkpt lat="43.81463" lon="3.69004">
        <ele>174.932</ele>
        <time>2012-08-10T09:01:13Z</time>
      </trkpt>
      <trkpt lat="43.81578" lon="3.68992">
        <ele>175.064</ele>
        <time>2012-08-10T09:01:23Z</time>
      </trkpt>
      <trkpt lat="43.81602" lon="3.68976">
        <ele>175.071</ele>
        <time>2012-08-10T09:01:36Z</time>
      </trkpt>
      <trkpt lat="43.81603" lon="3.68973">
        <ele>174.876</ele>
        <time>2012-08-10T09:01:38Z</time>
      </trkpt>
      <trkpt lat="43.81608" lon="3.68964">
        <ele>174.127</ele>
        <time>2012-08-10T09:01:52Z</time>
      </trkpt>
      <trkpt lat="43.81611" lon="3.68962">
        <ele>174.671</ele>
        <time>2012-08-10T09:02:01Z</time>
      </trkpt>
      <trkpt lat="43.8162" lon="3.68953">
        <ele>173.33</ele>
        <time>2012-08-10T09:02:12Z</time>
      </trkpt>
      <trkpt lat="43.81638" lon="3.6895">
        <ele>173.117</ele>
        <time>2012-08-10T09:02:27Z</time>
      </trkpt>
      <trkpt lat="43.81646" lon="3.68952">
        <ele>172.021</ele>
        <time>2012-08-10T09:02:35Z</time>
      </trkpt>
      <trkpt lat="43.81648" lon="3.6895">
        <ele>172.07</ele>
        <time>2012-08-10T09:02:37Z</time>
      </trkpt>
      <trkpt lat="43.81651" lon="3.6895">
        <ele>171.116</ele>
        <time>2012-08-10T09:02:40Z</time>
      </trkpt>
      <trkpt lat="43.81669" lon="3.68944">
        <ele>171.135</ele>
        <time>2012-08-10T09:02:56Z</time>
      </trkpt>
      <trkpt lat="43.81673" lon="3.68942">
        <ele>171.703</ele>
        <time>2012-08-10T09:03:01Z</time>
      </trkpt>
      <trkpt lat="43.81678" lon="3.68942">
        <ele>172.942</ele>
        <time>2012-08-10T09:03:09Z</time>
      </trkpt>
      <trkpt lat="43.81683" lon="3.68941">
        <ele>170.667</ele>
        <time>2012-08-10T09:03:12Z</time>
      </trkpt>
      <trkpt lat="43.81685" lon="3.6894">
        <ele>170.238</ele>
        <time>2012-08-10T09:03:14Z</time>
      </trkpt>
      <trkpt lat="43.81688" lon="3.68943">
        <ele>170.663</ele>
        <time>2012-08-10T09:03:33Z</time>
      </trkpt>
      <trkpt lat="43.81692" lon="3.68944">
        <ele>171.021</ele>
        <time>2012-08-10T09:03:37Z</time>
      </trkpt>
      <trkpt lat="43.81709" lon="3.68951">
        <ele>171.343</ele>
        <time>2012-08-10T09:03:53Z</time>
      </trkpt>
      <trkpt lat="43.81713" lon="3.68952">
        <ele>172.052</ele>
        <time>2012-08-10T09:03:56Z</time>
      </trkpt>
      <trkpt lat="43.81721" lon="3.68954">
        <ele>172.926</ele>
        <time>2012-08-10T09:04:03Z</time>
      </trkpt>
      <trkpt lat="43.81732" lon="3.68951">
        <ele>173.223</ele>
        <time>2012-08-10T09:04:16Z</time>
      </trkpt>
      <trkpt lat="43.81732" lon="3.68942">
        <ele>172.457</ele>
        <time>2012-08-10T09:04:22Z</time>
      </trkpt>
      <trkpt lat="43.81732" lon="3.68935">
        <ele>172.908</ele>
        <time>2012-08-10T09:04:26Z</time>
      </trkpt>
      <trkpt lat="43.81734" lon="3.6893">
        <ele>172.32</ele>
        <time>2012-08-10T09:04:30Z</time>
      </trkpt>
      <trkpt lat="43.81734" lon="3.68924">
        <ele>172.608</ele>
        <time>2012-08-10T09:04:34Z</time>
      </trkpt>
      <trkpt lat="43.81735" lon="3.6892">
        <ele>172.547</ele>
        <time>2012-08-10T09:04:37Z</time>
      </trkpt>
      <trkpt lat="43.81739" lon="3.68905">
        <ele>173.125</ele>
        <time>2012-08-10T09:04:47Z</time>
      </trkpt>
      <trkpt lat="43.81742" lon="3.68883">
        <ele>173.99</ele>
        <time>2012-08-10T09:05:02Z</time>
      </trkpt>
      <trkpt lat="43.81753" lon="3.68861">
        <ele>174.934</ele>
        <time>2012-08-10T09:05:19Z</time>
      </trkpt>
      <trkpt lat="43.81763" lon="3.68846">
        <ele>175.352</ele>
        <time>2012-08-10T09:05:32Z</time>
      </trkpt>
      <trkpt lat="43.81772" lon="3.68842">
        <ele>175.173</ele>
        <time>2012-08-10T09:05:45Z</time>
      </trkpt>
      <trkpt lat="43.81774" lon="3.68834">
        <ele>177.399</ele>
        <time>2012-08-10T09:05:58Z</time>
      </trkpt>
      <trkpt lat="43.81774" lon="3.68832">
        <ele>175.471</ele>
        <time>2012-08-10T09:06:03Z</time>
      </trkpt>
      <trkpt lat="43.81773" lon="3.68823">
        <ele>174.39</ele>
        <time>2012-08-10T09:06:11Z</time>
      </trkpt>
      <trkpt lat="43.81776" lon="3.68819">
        <ele>173.652</ele>
        <time>2012-08-10T09:06:14Z</time>
      </trkpt>
      <trkpt lat="43.8178" lon="3.68813">
        <ele>173.106</ele>
        <time>2012-08-10T09:06:18Z</time>
      </trkpt>
      <trkpt lat="43.81782" lon="3.68809">
        <ele>173.939</ele>
        <time>2012-08-10T09:06:22Z</time>
      </trkpt>
      <trkpt lat="43.81787" lon="3.68807">
        <ele>173.109</ele>
        <time>2012-08-10T09:06:26Z</time>
      </trkpt>
      <trkpt lat="43.8179" lon="3.68799">
        <ele>174.261</ele>
        <time>2012-08-10T09:06:32Z</time>
      </trkpt>
      <trkpt lat="43.81799" lon="3.68787">
        <ele>173.292</ele>
        <time>2012-08-10T09:06:43Z</time>
      </trkpt>
      <trkpt lat="43.81804" lon="3.68784">
        <ele>172.526</ele>
        <time>2012-08-10T09:06:48Z</time>
      </trkpt>
      <trkpt lat="43.81811" lon="3.68763">
        <ele>172.598</ele>
        <time>2012-08-10T09:07:02Z</time>
      </trkpt>
      <trkpt lat="43.81809" lon="3.68758">
        <ele>172.561</ele>
        <time>2012-08-10T09:07:14Z</time>
      </trkpt>
      <trkpt lat="43.81809" lon="3.68757">
        <ele>172.922</ele>
        <time>2012-08-10T09:07:15Z</time>
      </trkpt>
      <trkpt lat="43.81809" lon="3.68749">
        <ele>172.782</ele>
        <time>2012-08-10T09:07:20Z</time>
      </trkpt>
      <trkpt lat="43.8181" lon="3.68744">
        <ele>172.109</ele>
        <time>2012-08-10T09:07:23Z</time>
      </trkpt>
      <trkpt lat="43.81812" lon="3.68737">
        <ele>172.475</ele>
        <time>2012-08-10T09:07:28Z</time>
      </trkpt>
      <trkpt lat="43.8182" lon="3.68727">
        <ele>173.392</ele>
        <time>2012-08-10T09:07:38Z</time>
      </trkpt>
      <trkpt lat="43.81823" lon="3.68709">
        <ele>173.008</ele>
        <time>2012-08-10T09:07:49Z</time>
      </trkpt>
      <trkpt lat="43.81822" lon="3.68705">
        <ele>172.87</ele>
        <time>2012-08-10T09:07:51Z</time>
      </trkpt>
      <trkpt lat="43.81822" lon="3.68697">
        <ele>172.356</ele>
        <time>2012-08-10T09:07:55Z</time>
      </trkpt>
      <trkpt lat="43.81821" lon="3.68687">
        <ele>169.8</ele>
        <time>2012-08-10T09:08:01Z</time>
      </trkpt>
      <trkpt lat="43.81819" lon="3.68684">
        <ele>169.99</ele>
        <time>2012-08-10T09:08:03Z</time>
      </trkpt>
      <trkpt lat="43.81817" lon="3.68681">
        <ele>170.193</ele>
        <time>2012-08-10T09:08:06Z</time>
      </trkpt>
      <trkpt lat="43.81816" lon="3.68674">
        <ele>169.371</ele>
        <time>2012-08-10T09:08:11Z</time>
      </trkpt>
      <trkpt lat="43.81822" lon="3.68664">
        <ele>169.186</ele>
        <time>2012-08-10T09:08:21Z</time>
      </trkpt>
      <trkpt lat="43.81825" lon="3.68664">
        <ele>168.367</ele>
        <time>2012-08-10T09:08:23Z</time>
      </trkpt>
      <trkpt lat="43.81834" lon="3.6865">
        <ele>168.544</ele>
        <time>2012-08-10T09:08:38Z</time>
      </trkpt>
      <trkpt lat="43.81834" lon="3.68645">
        <ele>168.543</ele>
        <time>2012-08-10T09:08:42Z</time>
      </trkpt>
      <trkpt lat="43.81833" lon="3.68628">
        <ele>166.418</ele>
        <time>2012-08-10T09:08:54Z</time>
      </trkpt>
      <trkpt lat="43.81831" lon="3.68613">
        <ele>165.425</ele>
        <time>2012-08-10T09:09:07Z</time>
      </trkpt>
      <trkpt lat="43.81833" lon="3.68604">
        <ele>165.203</ele>
        <time>2012-08-10T09:09:18Z</time>
      </trkpt>
      <trkpt lat="43.81836" lon="3.68602">
        <ele>165.542</ele>
        <time>2012-08-10T09:09:20Z</time>
      </trkpt>
      <trkpt lat="43.8184" lon="3.68588">
        <ele>165.109</ele>
        <time>2012-08-10T09:09:30Z</time>
      </trkpt>
      <trkpt lat="43.81841" lon="3.68568">
        <ele>163.138</ele>
        <time>2012-08-10T09:09:41Z</time>
      </trkpt>
      <trkpt lat="43.81845" lon="3.6856">
        <ele>162.243</ele>
        <time>2012-08-10T09:09:48Z</time>
      </trkpt>
      <trkpt lat="43.81848" lon="3.68551">
        <ele>160.21</ele>
        <time>2012-08-10T09:09:57Z</time>
      </trkpt>
      <trkpt lat="43.81847" lon="3.68547">
        <ele>160.132</ele>
        <time>2012-08-10T09:10:00Z</time>
      </trkpt>
      <trkpt lat="43.81849" lon="3.68543">
        <ele>159.843</ele>
        <time>2012-08-10T09:10:04Z</time>
      </trkpt>
      <trkpt lat="43.81852" lon="3.68541">
        <ele>159.309</ele>
        <time>2012-08-10T09:10:07Z</time>
      </trkpt>
      <trkpt lat="43.81852" lon="3.68528">
        <ele>158.742</ele>
        <time>2012-08-10T09:10:17Z</time>
      </trkpt>
      <trkpt lat="43.81853" lon="3.68515">
        <ele>157.535</ele>
        <time>2012-08-10T09:10:26Z</time>
      </trkpt>
      <trkpt lat="43.81861" lon="3.68506">
        <ele>156.473</ele>
        <time>2012-08-10T09:10:33Z</time>
      </trkpt>
      <trkpt lat="43.81868" lon="3.68496">
        <ele>156.171</ele>
        <time>2012-08-10T09:10:43Z</time>
      </trkpt>
      <trkpt lat="43.81868" lon="3.68481">
        <ele>154.423</ele>
        <time>2012-08-10T09:10:55Z</time>
      </trkpt>
      <trkpt lat="43.81867" lon="3.68475">
        <ele>153.614</ele>
        <time>2012-08-10T09:11:00Z</time>
      </trkpt>
      <trkpt lat="43.81868" lon="3.68459">
        <ele>153.51</ele>
        <time>2012-08-10T09:11:11Z</time>
      </trkpt>
      <trkpt lat="43.81867" lon="3.68456">
        <ele>152.955</ele>
        <time>2012-08-10T09:11:19Z</time>
      </trkpt>
      <trkpt lat="43.81866" lon="3.68454">
        <ele>152.978</ele>
        <time>2012-08-10T09:11:24Z</time>
      </trkpt>
      <trkpt lat="43.8187" lon="3.68443">
        <ele>152.119</ele>
        <time>2012-08-10T09:11:37Z</time>
      </trkpt>
      <trkpt lat="43.81868" lon="3.68438">
        <ele>150.383</ele>
        <time>2012-08-10T09:11:48Z</time>
      </trkpt>
      <trkpt lat="43.81868" lon="3.68429">
        <ele>148.123</ele>
        <time>2012-08-10T09:11:57Z</time>
      </trkpt>
      <trkpt lat="43.81866" lon="3.68414">
        <ele>148.262</ele>
        <time>2012-08-10T09:12:07Z</time>
      </trkpt>
      <trkpt lat="43.81864" lon="3.68412">
        <ele>147.068</ele>
        <time>2012-08-10T09:12:18Z</time>
      </trkpt>
      <trkpt lat="43.81863" lon="3.68407">
        <ele>146.71</ele>
        <time>2012-08-10T09:12:28Z</time>
      </trkpt>
      <trkpt lat="43.81861" lon="3.68394">
        <ele>148.147</ele>
        <time>2012-08-10T09:12:38Z</time>
      </trkpt>
      <trkpt lat="43.81862" lon="3.68387">
        <ele>148.497</ele>
        <time>2012-08-10T09:12:50Z</time>
      </trkpt>
      <trkpt lat="43.81857" lon="3.68379">
        <ele>146.165</ele>
        <time>2012-08-10T09:13:02Z</time>
      </trkpt>
      <trkpt lat="43.81854" lon="3.6837">
        <ele>146.257</ele>
        <time>2012-08-10T09:13:10Z</time>
      </trkpt>
      <trkpt lat="43.81854" lon="3.68357">
        <ele>146.197</ele>
        <time>2012-08-10T09:13:22Z</time>
      </trkpt>
      <trkpt lat="43.81852" lon="3.68352">
        <ele>145.88</ele>
        <time>2012-08-10T09:13:34Z</time>
      </trkpt>
      <trkpt lat="43.81852" lon="3.68351">
        <ele>146.173</ele>
        <time>2012-08-10T09:13:36Z</time>
      </trkpt>
      <trkpt lat="43.81847" lon="3.6835">
        <ele>146.014</ele>
        <time>2012-08-10T09:13:46Z</time>
      </trkpt>
      <trkpt lat="43.81845" lon="3.68348">
        <ele>145.495</ele>
        <time>2012-08-10T09:13:59Z</time>
      </trkpt>
      <trkpt lat="43.81844" lon="3.68348">
        <ele>146.088</ele>
        <time>2012-08-10T09:14:16Z</time>
      </trkpt>
      <trkpt lat="43.81846" lon="3.68346">
        <ele>146.69</ele>
        <time>2012-08-10T09:14:36Z</time>
      </trkpt>
      <trkpt lat="43.81844" lon="3.68347">
        <ele>147.239</ele>
        <time>2012-08-10T09:15:05Z</time>
      </trkpt>
      <trkpt lat="43.81845" lon="3.68346">
        <ele>145.818</ele>
        <time>2012-08-10T09:15:14Z</time>
      </trkpt>
      <trkpt lat="43.81845" lon="3.68345">
        <ele>148.795</ele>
        <time>2012-08-10T09:16:33Z</time>
      </trkpt>
      <trkpt lat="43.81847" lon="3.68352">
        <ele>149.076</ele>
        <time>2012-08-10T09:16:46Z</time>
      </trkpt>
      <trkpt lat="43.81846" lon="3.68353">
        <ele>147.774</ele>
        <time>2012-08-10T09:16:49Z</time>
      </trkpt>
      <trkpt lat="43.8184" lon="3.68357">
        <ele>146.202</ele>
        <time>2012-08-10T09:17:01Z</time>
      </trkpt>
      <trkpt lat="43.81837" lon="3.68362">
        <ele>145.22</ele>
        <time>2012-08-10T09:17:11Z</time>
      </trkpt>
      <trkpt lat="43.81834" lon="3.68363">
        <ele>146.849</ele>
        <time>2012-08-10T09:17:23Z</time>
      </trkpt>
      <trkpt lat="43.81836" lon="3.68364">
        <ele>146.528</ele>
        <time>2012-08-10T09:17:26Z</time>
      </trkpt>
      <trkpt lat="43.81841" lon="3.68356">
        <ele>146.575</ele>
        <time>2012-08-10T09:17:37Z</time>
      </trkpt>
      <trkpt lat="43.81848" lon="3.68354">
        <ele>149.637</ele>
        <time>2012-08-10T09:17:46Z</time>
      </trkpt>
      <trkpt lat="43.81854" lon="3.68351">
        <ele>150.905</ele>
        <time>2012-08-10T09:17:55Z</time>
      </trkpt>
      <trkpt lat="43.81856" lon="3.6835">
        <ele>149.978</ele>
        <time>2012-08-10T09:17:58Z</time>
      </trkpt>
      <trkpt lat="43.81863" lon="3.68343">
        <ele>149.49</ele>
        <time>2012-08-10T09:18:13Z</time>
      </trkpt>
      <trkpt lat="43.81868" lon="3.6834">
        <ele>147.798</ele>
        <time>2012-08-10T09:18:23Z</time>
      </trkpt>
      <trkpt lat="43.81871" lon="3.68334">
        <ele>145.916</ele>
        <time>2012-08-10T09:18:35Z</time>
      </trkpt>
      <trkpt lat="43.81876" lon="3.68325">
        <ele>144.194</ele>
        <time>2012-08-10T09:18:50Z</time>
      </trkpt>
      <trkpt lat="43.8188" lon="3.68319">
        <ele>142.677</ele>
        <time>2012-08-10T09:19:00Z</time>
      </trkpt>
      <trkpt lat="43.81879" lon="3.68306">
        <ele>140.11</ele>
        <time>2012-08-10T09:19:12Z</time>
      </trkpt>
      <trkpt lat="43.81878" lon="3.68304">
        <ele>138.643</ele>
        <time>2012-08-10T09:19:15Z</time>
      </trkpt>
      <trkpt lat="43.81879" lon="3.68294">
        <ele>136.966</ele>
        <time>2012-08-10T09:19:29Z</time>
      </trkpt>
      <trkpt lat="43.81878" lon="3.68292">
        <ele>135.461</ele>
        <time>2012-08-10T09:19:35Z</time>
      </trkpt>
      <trkpt lat="43.81873" lon="3.68292">
        <ele>134.563</ele>
        <time>2012-08-10T09:20:21Z</time>
      </trkpt>
      <trkpt lat="43.81868" lon="3.6829">
        <ele>132.177</ele>
        <time>2012-08-10T09:20:31Z</time>
      </trkpt>
      <trkpt lat="43.81867" lon="3.6829">
        <ele>132.437</ele>
        <time>2012-08-10T09:20:34Z</time>
      </trkpt>
      <trkpt lat="43.81861" lon="3.68292">
        <ele>132.892</ele>
        <time>2012-08-10T09:20:45Z</time>
      </trkpt>
      <trkpt lat="43.81855" lon="3.68294">
        <ele>131.791</ele>
        <time>2012-08-10T09:21:01Z</time>
      </trkpt>
      <trkpt lat="43.81853" lon="3.68294">
        <ele>131.505</ele>
        <time>2012-08-10T09:21:03Z</time>
      </trkpt>
      <trkpt lat="43.81852" lon="3.68294">
        <ele>130.893</ele>
        <time>2012-08-10T09:21:05Z</time>
      </trkpt>
      <trkpt lat="43.8185" lon="3.68295">
        <ele>129.204</ele>
        <time>2012-08-10T09:21:08Z</time>
      </trkpt>
      <trkpt lat="43.81845" lon="3.68293">
        <ele>125.999</ele>
        <time>2012-08-10T09:21:20Z</time>
      </trkpt>
      <trkpt lat="43.8184" lon="3.68291">
        <ele>125.704</ele>
        <time>2012-08-10T09:21:34Z</time>
      </trkpt>
      <trkpt lat="43.81834" lon="3.68293">
        <ele>123.596</ele>
        <time>2012-08-10T09:21:53Z</time>
      </trkpt>
      <trkpt lat="43.81829" lon="3.68294">
        <ele>122.336</ele>
        <time>2012-08-10T09:22:11Z</time>
      </trkpt>
      <trkpt lat="43.81825" lon="3.68292">
        <ele>118.08</ele>
        <time>2012-08-10T09:22:23Z</time>
      </trkpt>
      <trkpt lat="43.81824" lon="3.68292">
        <ele>118.092</ele>
        <time>2012-08-10T09:22:24Z</time>
      </trkpt>
      <trkpt lat="43.81823" lon="3.68292">
        <ele>118.12</ele>
        <time>2012-08-10T09:22:25Z</time>
      </trkpt>
      <trkpt lat="43.8182" lon="3.68292">
        <ele>116.768</ele>
        <time>2012-08-10T09:22:28Z</time>
      </trkpt>
      <trkpt lat="43.81818" lon="3.68292">
        <ele>116.778</ele>
        <time>2012-08-10T09:22:30Z</time>
      </trkpt>
      <trkpt lat="43.81815" lon="3.68299">
        <ele>116.024</ele>
        <time>2012-08-10T09:22:42Z</time>
      </trkpt>
      <trkpt lat="43.81812" lon="3.68299">
        <ele>115.385</ele>
        <time>2012-08-10T09:22:51Z</time>
      </trkpt>
      <trkpt lat="43.81809" lon="3.68297">
        <ele>113.973</ele>
        <time>2012-08-10T09:23:10Z</time>
      </trkpt>
      <trkpt lat="43.81808" lon="3.68295">
        <ele>114.323</ele>
        <time>2012-08-10T09:23:35Z</time>
      </trkpt>
      <trkpt lat="43.81808" lon="3.6829">
        <ele>114.321</ele>
        <time>2012-08-10T09:23:50Z</time>
      </trkpt>
      <trkpt lat="43.81809" lon="3.68298">
        <ele>114.85</ele>
        <time>2012-08-10T09:24:07Z</time>
      </trkpt>
      <trkpt lat="43.81806" lon="3.683">
        <ele>116.116</ele>
        <time>2012-08-10T09:24:48Z</time>
      </trkpt>
      <trkpt lat="43.81804" lon="3.683">
        <ele>116.796</ele>
        <time>2012-08-10T09:25:10Z</time>
      </trkpt>
      <trkpt lat="43.818" lon="3.68296">
        <ele>118.443</ele>
        <time>2012-08-10T09:25:24Z</time>
      </trkpt>
      <trkpt lat="43.81797" lon="3.68298">
        <ele>119.049</ele>
        <time>2012-08-10T09:25:37Z</time>
      </trkpt>
      <trkpt lat="43.81794" lon="3.68294">
        <ele>118.907</ele>
        <time>2012-08-10T09:25:51Z</time>
      </trkpt>
      <trkpt lat="43.81794" lon="3.68293">
        <ele>119.372</ele>
        <time>2012-08-10T09:25:53Z</time>
      </trkpt>
      <trkpt lat="43.8179" lon="3.68294">
        <ele>118.625</ele>
        <time>2012-08-10T09:26:05Z</time>
      </trkpt>
      <trkpt lat="43.81788" lon="3.68299">
        <ele>119.065</ele>
        <time>2012-08-10T09:26:18Z</time>
      </trkpt>
      <trkpt lat="43.81785" lon="3.68299">
        <ele>119.973</ele>
        <time>2012-08-10T09:26:30Z</time>
      </trkpt>
      <trkpt lat="43.81782" lon="3.68297">
        <ele>118.54</ele>
        <time>2012-08-10T09:26:46Z</time>
      </trkpt>
      <trkpt lat="43.81777" lon="3.68296">
        <ele>117.324</ele>
        <time>2012-08-10T09:27:00Z</time>
      </trkpt>
      <trkpt lat="43.81774" lon="3.68297">
        <ele>116.176</ele>
        <time>2012-08-10T09:27:15Z</time>
      </trkpt>
      <trkpt lat="43.81771" lon="3.683">
        <ele>116.47</ele>
        <time>2012-08-10T09:27:21Z</time>
      </trkpt>
      <trkpt lat="43.81769" lon="3.68302">
        <ele>118.07</ele>
        <time>2012-08-10T09:27:26Z</time>
      </trkpt>
      <trkpt lat="43.81766" lon="3.6831">
        <ele>119.842</ele>
        <time>2012-08-10T09:27:38Z</time>
      </trkpt>
      <trkpt lat="43.81763" lon="3.68313">
        <ele>119.25</ele>
        <time>2012-08-10T09:27:43Z</time>
      </trkpt>
      <trkpt lat="43.8176" lon="3.68313">
        <ele>119.45</ele>
        <time>2012-08-10T09:27:46Z</time>
      </trkpt>
      <trkpt lat="43.81756" lon="3.6832">
        <ele>120.991</ele>
        <time>2012-08-10T09:27:56Z</time>
      </trkpt>
      <trkpt lat="43.81755" lon="3.68324">
        <ele>121.783</ele>
        <time>2012-08-10T09:28:10Z</time>
      </trkpt>
      <trkpt lat="43.81752" lon="3.68329">
        <ele>122.934</ele>
        <time>2012-08-10T09:28:22Z</time>
      </trkpt>
      <trkpt lat="43.81751" lon="3.68332">
        <ele>123.774</ele>
        <time>2012-08-10T09:28:31Z</time>
      </trkpt>
      <trkpt lat="43.8175" lon="3.68339">
        <ele>125.467</ele>
        <time>2012-08-10T09:28:43Z</time>
      </trkpt>
      <trkpt lat="43.81744" lon="3.68344">
        <ele>126.166</ele>
        <time>2012-08-10T09:28:59Z</time>
      </trkpt>
      <trkpt lat="43.81739" lon="3.68345">
        <ele>125.188</ele>
        <time>2012-08-10T09:29:09Z</time>
      </trkpt>
      <trkpt lat="43.81738" lon="3.68347">
        <ele>126.311</ele>
        <time>2012-08-10T09:29:21Z</time>
      </trkpt>
      <trkpt lat="43.81733" lon="3.68346">
        <ele>125.65</ele>
        <time>2012-08-10T09:30:11Z</time>
      </trkpt>
      <trkpt lat="43.81731" lon="3.6835">
        <ele>125.368</ele>
        <time>2012-08-10T09:30:15Z</time>
      </trkpt>
      <trkpt lat="43.8173" lon="3.68352">
        <ele>125.778</ele>
        <time>2012-08-10T09:30:17Z</time>
      </trkpt>
      <trkpt lat="43.81726" lon="3.68357">
        <ele>125.416</ele>
        <time>2012-08-10T09:30:28Z</time>
      </trkpt>
      <trkpt lat="43.81722" lon="3.6836">
        <ele>125.386</ele>
        <time>2012-08-10T09:30:40Z</time>
      </trkpt>
      <trkpt lat="43.81717" lon="3.68364">
        <ele>124.891</ele>
        <time>2012-08-10T09:30:49Z</time>
      </trkpt>
      <trkpt lat="43.81711" lon="3.68368">
        <ele>125.313</ele>
        <time>2012-08-10T09:31:00Z</time>
      </trkpt>
      <trkpt lat="43.81703" lon="3.6837">
        <ele>125.257</ele>
        <time>2012-08-10T09:31:12Z</time>
      </trkpt>
      <trkpt lat="43.81698" lon="3.68373">
        <ele>125.52</ele>
        <time>2012-08-10T09:31:23Z</time>
      </trkpt>
      <trkpt lat="43.81692" lon="3.68375">
        <ele>124.076</ele>
        <time>2012-08-10T09:31:39Z</time>
      </trkpt>
      <trkpt lat="43.8169" lon="3.68376">
        <ele>125.063</ele>
        <time>2012-08-10T09:31:45Z</time>
      </trkpt>
      <trkpt lat="43.81681" lon="3.68378">
        <ele>124.403</ele>
        <time>2012-08-10T09:31:56Z</time>
      </trkpt>
      <trkpt lat="43.81679" lon="3.68379">
        <ele>125.711</ele>
        <time>2012-08-10T09:32:06Z</time>
      </trkpt>
      <trkpt lat="43.81672" lon="3.68384">
        <ele>126.516</ele>
        <time>2012-08-10T09:32:16Z</time>
      </trkpt>
      <trkpt lat="43.81671" lon="3.68388">
        <ele>126.967</ele>
        <time>2012-08-10T09:32:28Z</time>
      </trkpt>
      <trkpt lat="43.81673" lon="3.68387">
        <ele>126.839</ele>
        <time>2012-08-10T09:32:31Z</time>
      </trkpt>
      <trkpt lat="43.81674" lon="3.68385">
        <ele>126.953</ele>
        <time>2012-08-10T09:32:33Z</time>
      </trkpt>
      <trkpt lat="43.81683" lon="3.68382">
        <ele>128.069</ele>
        <time>2012-08-10T09:32:46Z</time>
      </trkpt>
      <trkpt lat="43.81683" lon="3.68385">
        <ele>131.665</ele>
        <time>2012-08-10T09:32:56Z</time>
      </trkpt>
      <trkpt lat="43.81681" lon="3.6839">
        <ele>132.689</ele>
        <time>2012-08-10T09:33:10Z</time>
      </trkpt>
      <trkpt lat="43.81677" lon="3.68389">
        <ele>132.692</ele>
        <time>2012-08-10T09:33:50Z</time>
      </trkpt>
      <trkpt lat="43.81677" lon="3.68391">
        <ele>132.942</ele>
        <time>2012-08-10T09:34:19Z</time>
      </trkpt>
      <trkpt lat="43.81677" lon="3.6839">
        <ele>132.53</ele>
        <time>2012-08-10T09:34:49Z</time>
      </trkpt>
      <trkpt lat="43.81677" lon="3.6839">
        <ele>134.334</ele>
        <time>2012-08-10T09:34:54Z</time>
      </trkpt>
      <trkpt lat="43.81675" lon="3.68393">
        <ele>135.96</ele>
        <time>2012-08-10T09:35:05Z</time>
      </trkpt>
      <trkpt lat="43.81675" lon="3.68396">
        <ele>136.206</ele>
        <time>2012-08-10T09:35:16Z</time>
      </trkpt>
      <trkpt lat="43.81676" lon="3.68391">
        <ele>140.353</ele>
        <time>2012-08-10T09:35:43Z</time>
      </trkpt>
      <trkpt lat="43.81676" lon="3.6839">
        <ele>140.037</ele>
        <time>2012-08-10T09:35:56Z</time>
      </trkpt>
      <trkpt lat="43.81674" lon="3.68391">
        <ele>142.336</ele>
        <time>2012-08-10T09:36:03Z</time>
      </trkpt>
      <trkpt lat="43.81673" lon="3.68388">
        <ele>140.275</ele>
        <time>2012-08-10T09:36:08Z</time>
      </trkpt>
      <trkpt lat="43.81673" lon="3.6839">
        <ele>141.485</ele>
        <time>2012-08-10T09:36:10Z</time>
      </trkpt>
      <trkpt lat="43.81673" lon="3.68392">
        <ele>142.482</ele>
        <time>2012-08-10T09:36:12Z</time>
      </trkpt>
      <trkpt lat="43.81666" lon="3.68393">
        <ele>141.615</ele>
        <time>2012-08-10T09:36:26Z</time>
      </trkpt>
      <trkpt lat="43.81661" lon="3.68394">
        <ele>142.209</ele>
        <time>2012-08-10T09:36:35Z</time>
      </trkpt>
      <trkpt lat="43.8166" lon="3.68392">
        <ele>143.421</ele>
        <time>2012-08-10T09:36:45Z</time>
      </trkpt>
      <trkpt lat="43.8166" lon="3.68395">
        <ele>141.672</ele>
        <time>2012-08-10T09:37:08Z</time>
      </trkpt>
      <trkpt lat="43.81659" lon="3.68396">
        <ele>144.692</ele>
        <time>2012-08-10T09:37:11Z</time>
      </trkpt>
      <trkpt lat="43.81658" lon="3.68397">
        <ele>142.492</ele>
        <time>2012-08-10T09:37:16Z</time>
      </trkpt>
      <trkpt lat="43.81654" lon="3.68395">
        <ele>141.299</ele>
        <time>2012-08-10T09:37:29Z</time>
      </trkpt>
      <trkpt lat="43.81649" lon="3.68399">
        <ele>143.818</ele>
        <time>2012-08-10T09:37:41Z</time>
      </trkpt>
      <trkpt lat="43.81645" lon="3.684">
        <ele>144.841</ele>
        <time>2012-08-10T09:37:57Z</time>
      </trkpt>
      <trkpt lat="43.81642" lon="3.68402">
        <ele>146.357</ele>
        <time>2012-08-10T09:38:06Z</time>
      </trkpt>
      <trkpt lat="43.81642" lon="3.68392">
        <ele>146.294</ele>
        <time>2012-08-10T09:38:12Z</time>
      </trkpt>
      <trkpt lat="43.81643" lon="3.68352">
        <ele>146.411</ele>
        <time>2012-08-10T09:38:28Z</time>
      </trkpt>
      <trkpt lat="43.8165" lon="3.6834">
        <ele>146.584</ele>
        <time>2012-08-10T09:38:39Z</time>
      </trkpt>
    </trkseg>
  </trk>
  <trk>
    <name><![CDATA[ACTIVE LOG115811]]></name>
    <trkseg>
      <trkpt lat="43.81708" lon="3.67951">
        <ele>147.637</ele>
        <time>2012-08-10T09:58:11Z</time>
      </trkpt>
      <trkpt lat="43.81706" lon="3.68051">
        <ele>153.001</ele>
        <time>2012-08-10T09:58:34Z</time>
      </trkpt>
      <trkpt lat="43.81706" lon="3.68053">
        <ele>160.141</ele>
        <time>2012-08-10T09:58:35Z</time>
      </trkpt>
      <trkpt lat="43.81705" lon="3.68068">
        <ele>167.372</ele>
        <time>2012-08-10T09:58:36Z</time>
      </trkpt>
      <trkpt lat="43.81704" lon="3.68073">
        <ele>174.338</ele>
        <time>2012-08-10T09:58:37Z</time>
      </trkpt>
      <trkpt lat="43.81703" lon="3.6808">
        <ele>181.132</ele>
        <time>2012-08-10T09:58:38Z</time>
      </trkpt>
      <trkpt lat="43.81702" lon="3.68092">
        <ele>187.439</ele>
        <time>2012-08-10T09:58:39Z</time>
      </trkpt>
      <trkpt lat="43.81701" lon="3.68101">
        <ele>193.853</ele>
        <time>2012-08-10T09:58:40Z</time>
      </trkpt>
      <trkpt lat="43.817" lon="3.6811">
        <ele>200.142</ele>
        <time>2012-08-10T09:58:41Z</time>
      </trkpt>
      <trkpt lat="43.81699" lon="3.68119">
        <ele>205.225</ele>
        <time>2012-08-10T09:58:42Z</time>
      </trkpt>
      <trkpt lat="43.81698" lon="3.68128">
        <ele>211.727</ele>
        <time>2012-08-10T09:58:43Z</time>
      </trkpt>
      <trkpt lat="43.81696" lon="3.68137">
        <ele>216.177</ele>
        <time>2012-08-10T09:58:44Z</time>
      </trkpt>
      <trkpt lat="43.81694" lon="3.68149">
        <ele>220.166</ele>
        <time>2012-08-10T09:58:45Z</time>
      </trkpt>
      <trkpt lat="43.81694" lon="3.68154">
        <ele>225.621</ele>
        <time>2012-08-10T09:58:46Z</time>
      </trkpt>
      <trkpt lat="43.81693" lon="3.68158">
        <ele>230.186</ele>
        <time>2012-08-10T09:58:47Z</time>
      </trkpt>
      <trkpt lat="43.81693" lon="3.68162">
        <ele>234.231</ele>
        <time>2012-08-10T09:58:48Z</time>
      </trkpt>
      <trkpt lat="43.81692" lon="3.68166">
        <ele>238.888</ele>
        <time>2012-08-10T09:58:49Z</time>
      </trkpt>
      <trkpt lat="43.81691" lon="3.6817">
        <ele>242.261</ele>
        <time>2012-08-10T09:58:50Z</time>
      </trkpt>
      <trkpt lat="43.81691" lon="3.68174">
        <ele>245.442</ele>
        <time>2012-08-10T09:58:51Z</time>
      </trkpt>
      <trkpt lat="43.8169" lon="3.68178">
        <ele>249.674</ele>
        <time>2012-08-10T09:58:52Z</time>
      </trkpt>
      <trkpt lat="43.8169" lon="3.68179">
        <ele>253.118</ele>
        <time>2012-08-10T09:58:53Z</time>
      </trkpt>
      <trkpt lat="43.8169" lon="3.68184">
        <ele>259.248</ele>
        <time>2012-08-10T09:58:55Z</time>
      </trkpt>
      <trkpt lat="43.81689" lon="3.6819">
        <ele>264.205</ele>
        <time>2012-08-10T09:58:57Z</time>
      </trkpt>
      <trkpt lat="43.81689" lon="3.68197">
        <ele>269.526</ele>
        <time>2012-08-10T09:58:59Z</time>
      </trkpt>
      <trkpt lat="43.81688" lon="3.68203">
        <ele>273.461</ele>
        <time>2012-08-10T09:59:01Z</time>
      </trkpt>
      <trkpt lat="43.81688" lon="3.68211">
        <ele>278.244</ele>
        <time>2012-08-10T09:59:04Z</time>
      </trkpt>
      <trkpt lat="43.81688" lon="3.68217">
        <ele>281.248</ele>
        <time>2012-08-10T09:59:06Z</time>
      </trkpt>
      <trkpt lat="43.81683" lon="3.68245">
        <ele>284.353</ele>
        <time>2012-08-10T09:59:10Z</time>
      </trkpt>
      <trkpt lat="43.8168" lon="3.68278">
        <ele>284.191</ele>
        <time>2012-08-10T09:59:46Z</time>
      </trkpt>
      <trkpt lat="43.81676" lon="3.68313">
        <ele>284.11</ele>
        <time>2012-08-10T10:00:09Z</time>
      </trkpt>
      <trkpt lat="43.81672" lon="3.68345">
        <ele>284.414</ele>
        <time>2012-08-10T10:00:16Z</time>
      </trkpt>
      <trkpt lat="43.81673" lon="3.68374">
        <ele>283.923</ele>
        <time>2012-08-10T10:00:29Z</time>
      </trkpt>
      <trkpt lat="43.81674" lon="3.68391">
        <ele>282.528</ele>
        <time>2012-08-10T10:00:39Z</time>
      </trkpt>
      <trkpt lat="43.81679" lon="3.68395">
        <ele>281.013</ele>
        <time>2012-08-10T10:01:00Z</time>
      </trkpt>
      <trkpt lat="43.81681" lon="3.6839">
        <ele>279.329</ele>
        <time>2012-08-10T10:01:09Z</time>
      </trkpt>
      <trkpt lat="43.81682" lon="3.68379">
        <ele>275.865</ele>
        <time>2012-08-10T10:01:29Z</time>
      </trkpt>
      <trkpt lat="43.81678" lon="3.68384">
        <ele>273.757</ele>
        <time>2012-08-10T10:01:47Z</time>
      </trkpt>
      <trkpt lat="43.8168" lon="3.68385">
        <ele>272.439</ele>
        <time>2012-08-10T10:01:50Z</time>
      </trkpt>
      <trkpt lat="43.81682" lon="3.68391">
        <ele>271</ele>
        <time>2012-08-10T10:02:16Z</time>
      </trkpt>
      <trkpt lat="43.81686" lon="3.68394">
        <ele>271.462</ele>
        <time>2012-08-10T10:02:33Z</time>
      </trkpt>
      <trkpt lat="43.81691" lon="3.68389">
        <ele>268.959</ele>
        <time>2012-08-10T10:02:51Z</time>
      </trkpt>
      <trkpt lat="43.81695" lon="3.68385">
        <ele>266.921</ele>
        <time>2012-08-10T10:03:06Z</time>
      </trkpt>
      <trkpt lat="43.817" lon="3.68382">
        <ele>265.8</ele>
        <time>2012-08-10T10:03:17Z</time>
      </trkpt>
      <trkpt lat="43.81704" lon="3.68384">
        <ele>265.13</ele>
        <time>2012-08-10T10:03:33Z</time>
      </trkpt>
      <trkpt lat="43.81707" lon="3.68381">
        <ele>263.673</ele>
        <time>2012-08-10T10:03:47Z</time>
      </trkpt>
      <trkpt lat="43.81711" lon="3.68379">
        <ele>262.101</ele>
        <time>2012-08-10T10:03:56Z</time>
      </trkpt>
      <trkpt lat="43.81715" lon="3.68378">
        <ele>261.719</ele>
        <time>2012-08-10T10:04:06Z</time>
      </trkpt>
      <trkpt lat="43.81719" lon="3.68375">
        <ele>260.338</ele>
        <time>2012-08-10T10:04:18Z</time>
      </trkpt>
      <trkpt lat="43.81721" lon="3.68374">
        <ele>259.007</ele>
        <time>2012-08-10T10:04:23Z</time>
      </trkpt>
      <trkpt lat="43.81725" lon="3.68371">
        <ele>258.276</ele>
        <time>2012-08-10T10:04:34Z</time>
      </trkpt>
      <trkpt lat="43.81727" lon="3.6837">
        <ele>257.062</ele>
        <time>2012-08-10T10:04:42Z</time>
      </trkpt>
      <trkpt lat="43.8173" lon="3.68372">
        <ele>259.022</ele>
        <time>2012-08-10T10:04:56Z</time>
      </trkpt>
      <trkpt lat="43.81731" lon="3.68375">
        <ele>253.655</ele>
        <time>2012-08-10T10:05:05Z</time>
      </trkpt>
      <trkpt lat="43.81732" lon="3.68374">
        <ele>263.053</ele>
        <time>2012-08-10T10:05:06Z</time>
      </trkpt>
      <trkpt lat="43.81732" lon="3.68374">
        <ele>260.73</ele>
        <time>2012-08-10T10:05:07Z</time>
      </trkpt>
      <trkpt lat="43.81733" lon="3.68374">
        <ele>259.335</ele>
        <time>2012-08-10T10:05:09Z</time>
      </trkpt>
      <trkpt lat="43.81736" lon="3.68375">
        <ele>259.772</ele>
        <time>2012-08-10T10:05:19Z</time>
      </trkpt>
      <trkpt lat="43.81741" lon="3.68372">
        <ele>258.981</ele>
        <time>2012-08-10T10:05:31Z</time>
      </trkpt>
      <trkpt lat="43.81743" lon="3.68376">
        <ele>261.844</ele>
        <time>2012-08-10T10:05:42Z</time>
      </trkpt>
      <trkpt lat="43.81745" lon="3.68373">
        <ele>262.335</ele>
        <time>2012-08-10T10:05:55Z</time>
      </trkpt>
      <trkpt lat="43.81749" lon="3.68378">
        <ele>264.319</ele>
        <time>2012-08-10T10:06:07Z</time>
      </trkpt>
      <trkpt lat="43.81752" lon="3.6838">
        <ele>265.609</ele>
        <time>2012-08-10T10:06:22Z</time>
      </trkpt>
      <trkpt lat="43.81756" lon="3.68376">
        <ele>265.861</ele>
        <time>2012-08-10T10:06:35Z</time>
      </trkpt>
      <trkpt lat="43.81758" lon="3.68374">
        <ele>264.426</ele>
        <time>2012-08-10T10:06:40Z</time>
      </trkpt>
      <trkpt lat="43.81763" lon="3.68369">
        <ele>263.758</ele>
        <time>2012-08-10T10:06:49Z</time>
      </trkpt>
      <trkpt lat="43.81766" lon="3.68364">
        <ele>262.06</ele>
        <time>2012-08-10T10:07:01Z</time>
      </trkpt>
      <trkpt lat="43.81772" lon="3.68363">
        <ele>262.583</ele>
        <time>2012-08-10T10:07:16Z</time>
      </trkpt>
      <trkpt lat="43.81776" lon="3.68358">
        <ele>262.331</ele>
        <time>2012-08-10T10:07:27Z</time>
      </trkpt>
      <trkpt lat="43.81781" lon="3.68353">
        <ele>260.377</ele>
        <time>2012-08-10T10:07:39Z</time>
      </trkpt>
      <trkpt lat="43.81785" lon="3.68352">
        <ele>261.227</ele>
        <time>2012-08-10T10:07:51Z</time>
      </trkpt>
      <trkpt lat="43.81786" lon="3.68354">
        <ele>259.575</ele>
        <time>2012-08-10T10:08:06Z</time>
      </trkpt>
      <trkpt lat="43.81788" lon="3.68355">
        <ele>260.904</ele>
        <time>2012-08-10T10:08:16Z</time>
      </trkpt>
      <trkpt lat="43.81791" lon="3.68357">
        <ele>261.028</ele>
        <time>2012-08-10T10:08:32Z</time>
      </trkpt>
      <trkpt lat="43.81792" lon="3.68358">
        <ele>259.346</ele>
        <time>2012-08-10T10:08:44Z</time>
      </trkpt>
      <trkpt lat="43.81794" lon="3.68357">
        <ele>260.612</ele>
        <time>2012-08-10T10:09:02Z</time>
      </trkpt>
      <trkpt lat="43.81797" lon="3.68359">
        <ele>260.068</ele>
        <time>2012-08-10T10:09:16Z</time>
      </trkpt>
      <trkpt lat="43.818" lon="3.68358">
        <ele>258.575</ele>
        <time>2012-08-10T10:09:34Z</time>
      </trkpt>
      <trkpt lat="43.81803" lon="3.68359">
        <ele>258.074</ele>
        <time>2012-08-10T10:09:53Z</time>
      </trkpt>
      <trkpt lat="43.81805" lon="3.68358">
        <ele>257.981</ele>
        <time>2012-08-10T10:10:01Z</time>
      </trkpt>
      <trkpt lat="43.81808" lon="3.6836">
        <ele>260.616</ele>
        <time>2012-08-10T10:10:15Z</time>
      </trkpt>
      <trkpt lat="43.81812" lon="3.68361">
        <ele>259.469</ele>
        <time>2012-08-10T10:10:27Z</time>
      </trkpt>
      <trkpt lat="43.8181" lon="3.6836">
        <ele>257.957</ele>
        <time>2012-08-10T10:10:44Z</time>
      </trkpt>
      <trkpt lat="43.81809" lon="3.68363">
        <ele>259.107</ele>
        <time>2012-08-10T10:10:50Z</time>
      </trkpt>
      <trkpt lat="43.81805" lon="3.68366">
        <ele>259.238</ele>
        <time>2012-08-10T10:11:05Z</time>
      </trkpt>
      <trkpt lat="43.81803" lon="3.68369">
        <ele>258.078</ele>
        <time>2012-08-10T10:11:17Z</time>
      </trkpt>
      <trkpt lat="43.81805" lon="3.68365">
        <ele>257.901</ele>
        <time>2012-08-10T10:11:31Z</time>
      </trkpt>
      <trkpt lat="43.81807" lon="3.68363">
        <ele>258.759</ele>
        <time>2012-08-10T10:11:44Z</time>
      </trkpt>
      <trkpt lat="43.81808" lon="3.68368">
        <ele>259.478</ele>
        <time>2012-08-10T10:11:59Z</time>
      </trkpt>
      <trkpt lat="43.81808" lon="3.68369">
        <ele>258.575</ele>
        <time>2012-08-10T10:12:03Z</time>
      </trkpt>
      <trkpt lat="43.81809" lon="3.68369">
        <ele>260.257</ele>
        <time>2012-08-10T10:12:09Z</time>
      </trkpt>
      <trkpt lat="43.81811" lon="3.68367">
        <ele>259.242</ele>
        <time>2012-08-10T10:12:24Z</time>
      </trkpt>
      <trkpt lat="43.81811" lon="3.68367">
        <ele>253.891</ele>
        <time>2012-08-10T10:12:25Z</time>
      </trkpt>
      <trkpt lat="43.81811" lon="3.68367">
        <ele>259.077</ele>
        <time>2012-08-10T10:12:26Z</time>
      </trkpt>
      <trkpt lat="43.81811" lon="3.68366">
        <ele>269.81</ele>
        <time>2012-08-10T10:12:28Z</time>
      </trkpt>
      <trkpt lat="43.81811" lon="3.68366">
        <ele>260.799</ele>
        <time>2012-08-10T10:12:29Z</time>
      </trkpt>
      <trkpt lat="43.81812" lon="3.68366">
        <ele>259.351</ele>
        <time>2012-08-10T10:12:32Z</time>
      </trkpt>
      <trkpt lat="43.81816" lon="3.68369">
        <ele>259.471</ele>
        <time>2012-08-10T10:12:49Z</time>
      </trkpt>
      <trkpt lat="43.81819" lon="3.68369">
        <ele>258.8</ele>
        <time>2012-08-10T10:13:04Z</time>
      </trkpt>
      <trkpt lat="43.81822" lon="3.68369">
        <ele>257.686</ele>
        <time>2012-08-10T10:13:20Z</time>
      </trkpt>
      <trkpt lat="43.81825" lon="3.68368">
        <ele>257.018</ele>
        <time>2012-08-10T10:13:31Z</time>
      </trkpt>
      <trkpt lat="43.81827" lon="3.68368">
        <ele>256.67</ele>
        <time>2012-08-10T10:13:46Z</time>
      </trkpt>
      <trkpt lat="43.81826" lon="3.68365">
        <ele>255.561</ele>
        <time>2012-08-10T10:13:58Z</time>
      </trkpt>
      <trkpt lat="43.81828" lon="3.68364">
        <ele>255.2</ele>
        <time>2012-08-10T10:14:16Z</time>
      </trkpt>
      <trkpt lat="43.8183" lon="3.68362">
        <ele>255.147</ele>
        <time>2012-08-10T10:14:26Z</time>
      </trkpt>
      <trkpt lat="43.81835" lon="3.68366">
        <ele>254.88</ele>
        <time>2012-08-10T10:14:40Z</time>
      </trkpt>
      <trkpt lat="43.81836" lon="3.68366">
        <ele>254.683</ele>
        <time>2012-08-10T10:14:42Z</time>
      </trkpt>
      <trkpt lat="43.81841" lon="3.68362">
        <ele>254.085</ele>
        <time>2012-08-10T10:14:52Z</time>
      </trkpt>
      <trkpt lat="43.81844" lon="3.68358">
        <ele>253.825</ele>
        <time>2012-08-10T10:15:04Z</time>
      </trkpt>
      <trkpt lat="43.81846" lon="3.68355">
        <ele>255.088</ele>
        <time>2012-08-10T10:15:13Z</time>
      </trkpt>
      <trkpt lat="43.81849" lon="3.68353">
        <ele>257.304</ele>
        <time>2012-08-10T10:15:21Z</time>
      </trkpt>
      <trkpt lat="43.81853" lon="3.68349">
        <ele>257.552</ele>
        <time>2012-08-10T10:15:31Z</time>
      </trkpt>
      <trkpt lat="43.81853" lon="3.68349">
        <ele>257.109</ele>
        <time>2012-08-10T10:15:35Z</time>
      </trkpt>
      <trkpt lat="43.81855" lon="3.6836">
        <ele>257.927</ele>
        <time>2012-08-10T10:15:44Z</time>
      </trkpt>
      <trkpt lat="43.81857" lon="3.68369">
        <ele>257.467</ele>
        <time>2012-08-10T10:15:58Z</time>
      </trkpt>
      <trkpt lat="43.81859" lon="3.68373">
        <ele>257.044</ele>
        <time>2012-08-10T10:16:03Z</time>
      </trkpt>
      <trkpt lat="43.8186" lon="3.68381">
        <ele>258.011</ele>
        <time>2012-08-10T10:16:14Z</time>
      </trkpt>
      <trkpt lat="43.81861" lon="3.68387">
        <ele>257.732</ele>
        <time>2012-08-10T10:16:25Z</time>
      </trkpt>
      <trkpt lat="43.81864" lon="3.68398">
        <ele>257.802</ele>
        <time>2012-08-10T10:16:36Z</time>
      </trkpt>
      <trkpt lat="43.81864" lon="3.68409">
        <ele>257.595</ele>
        <time>2012-08-10T10:16:45Z</time>
      </trkpt>
      <trkpt lat="43.81866" lon="3.68419">
        <ele>258.207</ele>
        <time>2012-08-10T10:16:55Z</time>
      </trkpt>
      <trkpt lat="43.81866" lon="3.6842">
        <ele>258.982</ele>
        <time>2012-08-10T10:16:56Z</time>
      </trkpt>
      <trkpt lat="43.81866" lon="3.6843">
        <ele>259.406</ele>
        <time>2012-08-10T10:17:06Z</time>
      </trkpt>
      <trkpt lat="43.81866" lon="3.6843">
        <ele>259.449</ele>
        <time>2012-08-10T10:17:07Z</time>
      </trkpt>
      <trkpt lat="43.81866" lon="3.68434">
        <ele>260.368</ele>
        <time>2012-08-10T10:17:11Z</time>
      </trkpt>
      <trkpt lat="43.81864" lon="3.68442">
        <ele>260.261</ele>
        <time>2012-08-10T10:17:20Z</time>
      </trkpt>
      <trkpt lat="43.81862" lon="3.6845">
        <ele>260.899</ele>
        <time>2012-08-10T10:17:30Z</time>
      </trkpt>
      <trkpt lat="43.81865" lon="3.68455">
        <ele>260.48</ele>
        <time>2012-08-10T10:17:39Z</time>
      </trkpt>
      <trkpt lat="43.81865" lon="3.68467">
        <ele>261.648</ele>
        <time>2012-08-10T10:17:51Z</time>
      </trkpt>
      <trkpt lat="43.81866" lon="3.68471">
        <ele>261.954</ele>
        <time>2012-08-10T10:18:03Z</time>
      </trkpt>
      <trkpt lat="43.81866" lon="3.68471">
        <ele>261.643</ele>
        <time>2012-08-10T10:18:04Z</time>
      </trkpt>
      <trkpt lat="43.81867" lon="3.68479">
        <ele>261.88</ele>
        <time>2012-08-10T10:18:15Z</time>
      </trkpt>
      <trkpt lat="43.81868" lon="3.68484">
        <ele>263.316</ele>
        <time>2012-08-10T10:18:22Z</time>
      </trkpt>
      <trkpt lat="43.81864" lon="3.68495">
        <ele>262.658</ele>
        <time>2012-08-10T10:18:32Z</time>
      </trkpt>
      <trkpt lat="43.81862" lon="3.68496">
        <ele>262.681</ele>
        <time>2012-08-10T10:18:34Z</time>
      </trkpt>
      <trkpt lat="43.8186" lon="3.68507">
        <ele>263.426</ele>
        <time>2012-08-10T10:18:45Z</time>
      </trkpt>
      <trkpt lat="43.81859" lon="3.68518">
        <ele>263.843</ele>
        <time>2012-08-10T10:18:54Z</time>
      </trkpt>
      <trkpt lat="43.81855" lon="3.68529">
        <ele>264.376</ele>
        <time>2012-08-10T10:19:05Z</time>
      </trkpt>
      <trkpt lat="43.81852" lon="3.68539">
        <ele>265.679</ele>
        <time>2012-08-10T10:19:17Z</time>
      </trkpt>
      <trkpt lat="43.81848" lon="3.68543">
        <ele>266.301</ele>
        <time>2012-08-10T10:19:22Z</time>
      </trkpt>
      <trkpt lat="43.81849" lon="3.68555">
        <ele>266.624</ele>
        <time>2012-08-10T10:19:36Z</time>
      </trkpt>
      <trkpt lat="43.81848" lon="3.68561">
        <ele>267.933</ele>
        <time>2012-08-10T10:19:42Z</time>
      </trkpt>
      <trkpt lat="43.81842" lon="3.68571">
        <ele>268.612</ele>
        <time>2012-08-10T10:19:52Z</time>
      </trkpt>
      <trkpt lat="43.81838" lon="3.68578">
        <ele>268.618</ele>
        <time>2012-08-10T10:20:05Z</time>
      </trkpt>
      <trkpt lat="43.81834" lon="3.68595">
        <ele>270.415</ele>
        <time>2012-08-10T10:20:22Z</time>
      </trkpt>
      <trkpt lat="43.81834" lon="3.68596">
        <ele>270.373</ele>
        <time>2012-08-10T10:20:23Z</time>
      </trkpt>
      <trkpt lat="43.8183" lon="3.6861">
        <ele>270.224</ele>
        <time>2012-08-10T10:20:35Z</time>
      </trkpt>
      <trkpt lat="43.8183" lon="3.6862">
        <ele>270.017</ele>
        <time>2012-08-10T10:20:45Z</time>
      </trkpt>
      <trkpt lat="43.81834" lon="3.6863">
        <ele>270.415</ele>
        <time>2012-08-10T10:20:56Z</time>
      </trkpt>
      <trkpt lat="43.81831" lon="3.68646">
        <ele>273.017</ele>
        <time>2012-08-10T10:21:13Z</time>
      </trkpt>
      <trkpt lat="43.81827" lon="3.6865">
        <ele>272.954</ele>
        <time>2012-08-10T10:21:19Z</time>
      </trkpt>
      <trkpt lat="43.8182" lon="3.68663">
        <ele>271.929</ele>
        <time>2012-08-10T10:21:30Z</time>
      </trkpt>
      <trkpt lat="43.81814" lon="3.68674">
        <ele>272.966</ele>
        <time>2012-08-10T10:21:43Z</time>
      </trkpt>
      <trkpt lat="43.81815" lon="3.68677">
        <ele>272.529</ele>
        <time>2012-08-10T10:22:04Z</time>
      </trkpt>
      <trkpt lat="43.81818" lon="3.68685">
        <ele>271.621</ele>
        <time>2012-08-10T10:22:10Z</time>
      </trkpt>
      <trkpt lat="43.81822" lon="3.68695">
        <ele>271.714</ele>
        <time>2012-08-10T10:22:20Z</time>
      </trkpt>
      <trkpt lat="43.81822" lon="3.68707">
        <ele>273.675</ele>
        <time>2012-08-10T10:22:30Z</time>
      </trkpt>
      <trkpt lat="43.8182" lon="3.68716">
        <ele>274.655</ele>
        <time>2012-08-10T10:22:38Z</time>
      </trkpt>
      <trkpt lat="43.81814" lon="3.68727">
        <ele>274.375</ele>
        <time>2012-08-10T10:22:50Z</time>
      </trkpt>
      <trkpt lat="43.81807" lon="3.68736">
        <ele>273.697</ele>
        <time>2012-08-10T10:22:59Z</time>
      </trkpt>
      <trkpt lat="43.81802" lon="3.68753">
        <ele>273.721</ele>
        <time>2012-08-10T10:23:11Z</time>
      </trkpt>
      <trkpt lat="43.81804" lon="3.68756">
        <ele>272.653</ele>
        <time>2012-08-10T10:23:13Z</time>
      </trkpt>
      <trkpt lat="43.81809" lon="3.68763">
        <ele>272.609</ele>
        <time>2012-08-10T10:23:19Z</time>
      </trkpt>
      <trkpt lat="43.81804" lon="3.68776">
        <ele>272.177</ele>
        <time>2012-08-10T10:23:30Z</time>
      </trkpt>
      <trkpt lat="43.818" lon="3.68784">
        <ele>273.287</ele>
        <time>2012-08-10T10:23:40Z</time>
      </trkpt>
      <trkpt lat="43.81792" lon="3.68795">
        <ele>274.526</ele>
        <time>2012-08-10T10:23:49Z</time>
      </trkpt>
      <trkpt lat="43.81791" lon="3.688">
        <ele>274.706</ele>
        <time>2012-08-10T10:23:54Z</time>
      </trkpt>
      <trkpt lat="43.81796" lon="3.68809">
        <ele>274.302</ele>
        <time>2012-08-10T10:24:05Z</time>
      </trkpt>
      <trkpt lat="43.818" lon="3.68815">
        <ele>274.631</ele>
        <time>2012-08-10T10:24:10Z</time>
      </trkpt>
      <trkpt lat="43.81805" lon="3.68821">
        <ele>274.767</ele>
        <time>2012-08-10T10:24:19Z</time>
      </trkpt>
      <trkpt lat="43.81805" lon="3.6882">
        <ele>274.61</ele>
        <time>2012-08-10T10:24:20Z</time>
      </trkpt>
      <trkpt lat="43.81799" lon="3.68817">
        <ele>274.412</ele>
        <time>2012-08-10T10:24:24Z</time>
      </trkpt>
      <trkpt lat="43.81789" lon="3.68818">
        <ele>273.503</ele>
        <time>2012-08-10T10:24:34Z</time>
      </trkpt>
      <trkpt lat="43.8178" lon="3.68817">
        <ele>273.451</ele>
        <time>2012-08-10T10:24:43Z</time>
      </trkpt>
      <trkpt lat="43.81776" lon="3.68822">
        <ele>274.013</ele>
        <time>2012-08-10T10:24:53Z</time>
      </trkpt>
      <trkpt lat="43.81777" lon="3.6883">
        <ele>274.544</ele>
        <time>2012-08-10T10:25:03Z</time>
      </trkpt>
      <trkpt lat="43.8177" lon="3.68839">
        <ele>274.67</ele>
        <time>2012-08-10T10:25:23Z</time>
      </trkpt>
      <trkpt lat="43.81769" lon="3.68839">
        <ele>274.669</ele>
        <time>2012-08-10T10:25:24Z</time>
      </trkpt>
      <trkpt lat="43.81761" lon="3.68841">
        <ele>274.489</ele>
        <time>2012-08-10T10:25:29Z</time>
      </trkpt>
      <trkpt lat="43.81756" lon="3.68853">
        <ele>274.788</ele>
        <time>2012-08-10T10:25:37Z</time>
      </trkpt>
      <trkpt lat="43.81748" lon="3.68869">
        <ele>273.472</ele>
        <time>2012-08-10T10:25:50Z</time>
      </trkpt>
      <trkpt lat="43.81747" lon="3.68871">
        <ele>273.298</ele>
        <time>2012-08-10T10:25:51Z</time>
      </trkpt>
      <trkpt lat="43.81746" lon="3.68879">
        <ele>273.157</ele>
        <time>2012-08-10T10:25:56Z</time>
      </trkpt>
      <trkpt lat="43.81744" lon="3.68882">
        <ele>273.209</ele>
        <time>2012-08-10T10:25:59Z</time>
      </trkpt>
      <trkpt lat="43.81741" lon="3.68898">
        <ele>273.47</ele>
        <time>2012-08-10T10:26:10Z</time>
      </trkpt>
      <trkpt lat="43.81738" lon="3.68909">
        <ele>272.073</ele>
        <time>2012-08-10T10:26:18Z</time>
      </trkpt>
      <trkpt lat="43.81736" lon="3.68925">
        <ele>272.699</ele>
        <time>2012-08-10T10:26:28Z</time>
      </trkpt>
      <trkpt lat="43.81736" lon="3.68931">
        <ele>272.964</ele>
        <time>2012-08-10T10:26:33Z</time>
      </trkpt>
      <trkpt lat="43.81734" lon="3.6894">
        <ele>272.87</ele>
        <time>2012-08-10T10:26:39Z</time>
      </trkpt>
      <trkpt lat="43.8173" lon="3.68946">
        <ele>273.461</ele>
        <time>2012-08-10T10:26:44Z</time>
      </trkpt>
      <trkpt lat="43.81728" lon="3.68947">
        <ele>273.354</ele>
        <time>2012-08-10T10:26:49Z</time>
      </trkpt>
      <trkpt lat="43.81728" lon="3.6894">
        <ele>272.491</ele>
        <time>2012-08-10T10:26:54Z</time>
      </trkpt>
      <trkpt lat="43.81724" lon="3.68937">
        <ele>272.541</ele>
        <time>2012-08-10T10:26:57Z</time>
      </trkpt>
      <trkpt lat="43.81718" lon="3.68937">
        <ele>271.703</ele>
        <time>2012-08-10T10:27:02Z</time>
      </trkpt>
      <trkpt lat="43.81708" lon="3.68939">
        <ele>271.157</ele>
        <time>2012-08-10T10:27:12Z</time>
      </trkpt>
      <trkpt lat="43.817" lon="3.68943">
        <ele>271.234</ele>
        <time>2012-08-10T10:27:19Z</time>
      </trkpt>
      <trkpt lat="43.81689" lon="3.68939">
        <ele>271.001</ele>
        <time>2012-08-10T10:27:31Z</time>
      </trkpt>
      <trkpt lat="43.81682" lon="3.68941">
        <ele>271.69</ele>
        <time>2012-08-10T10:27:42Z</time>
      </trkpt>
      <trkpt lat="43.8168" lon="3.68941">
        <ele>273.026</ele>
        <time>2012-08-10T10:27:45Z</time>
      </trkpt>
      <trkpt lat="43.81671" lon="3.68942">
        <ele>273.64</ele>
        <time>2012-08-10T10:27:53Z</time>
      </trkpt>
      <trkpt lat="43.81666" lon="3.68944">
        <ele>273.131</ele>
        <time>2012-08-10T10:27:58Z</time>
      </trkpt>
      <trkpt lat="43.81653" lon="3.68945">
        <ele>272.992</ele>
        <time>2012-08-10T10:28:10Z</time>
      </trkpt>
      <trkpt lat="43.81646" lon="3.68946">
        <ele>272.355</ele>
        <time>2012-08-10T10:28:16Z</time>
      </trkpt>
      <trkpt lat="43.81643" lon="3.68949">
        <ele>273.156</ele>
        <time>2012-08-10T10:28:21Z</time>
      </trkpt>
      <trkpt lat="43.81631" lon="3.68951">
        <ele>272.616</ele>
        <time>2012-08-10T10:28:34Z</time>
      </trkpt>
      <trkpt lat="43.81615" lon="3.68964">
        <ele>273.521</ele>
        <time>2012-08-10T10:28:53Z</time>
      </trkpt>
      <trkpt lat="43.8161" lon="3.68971">
        <ele>275.185</ele>
        <time>2012-08-10T10:29:01Z</time>
      </trkpt>
      <trkpt lat="43.81607" lon="3.68973">
        <ele>275.504</ele>
        <time>2012-08-10T10:29:05Z</time>
      </trkpt>
      <trkpt lat="43.81604" lon="3.68979">
        <ele>276.031</ele>
        <time>2012-08-10T10:29:10Z</time>
      </trkpt>
      <trkpt lat="43.81605" lon="3.69007">
        <ele>274.753</ele>
        <time>2012-08-10T10:29:28Z</time>
      </trkpt>
      <trkpt lat="43.81607" lon="3.69032">
        <ele>274.171</ele>
        <time>2012-08-10T10:29:46Z</time>
      </trkpt>
      <trkpt lat="43.81609" lon="3.69047">
        <ele>273.703</ele>
        <time>2012-08-10T10:29:57Z</time>
      </trkpt>
      <trkpt lat="43.81609" lon="3.69067">
        <ele>272.25</ele>
        <time>2012-08-10T10:30:08Z</time>
      </trkpt>
      <trkpt lat="43.81612" lon="3.69081">
        <ele>272.227</ele>
        <time>2012-08-10T10:30:17Z</time>
      </trkpt>
      <trkpt lat="43.81612" lon="3.69089">
        <ele>271.519</ele>
        <time>2012-08-10T10:30:21Z</time>
      </trkpt>
      <trkpt lat="43.81614" lon="3.69113">
        <ele>272.936</ele>
        <time>2012-08-10T10:30:37Z</time>
      </trkpt>
      <trkpt lat="43.81616" lon="3.69136">
        <ele>271.723</ele>
        <time>2012-08-10T10:30:53Z</time>
      </trkpt>
      <trkpt lat="43.81617" lon="3.69137">
        <ele>271.342</ele>
        <time>2012-08-10T10:30:54Z</time>
      </trkpt>
      <trkpt lat="43.81618" lon="3.69157">
        <ele>270.556</ele>
        <time>2012-08-10T10:31:06Z</time>
      </trkpt>
      <trkpt lat="43.81618" lon="3.69161">
        <ele>270.877</ele>
        <time>2012-08-10T10:31:10Z</time>
      </trkpt>
      <trkpt lat="43.81621" lon="3.69178">
        <ele>270.953</ele>
        <time>2012-08-10T10:31:21Z</time>
      </trkpt>
      <trkpt lat="43.81622" lon="3.6918">
        <ele>270.291</ele>
        <time>2012-08-10T10:31:22Z</time>
      </trkpt>
      <trkpt lat="43.81628" lon="3.69182">
        <ele>270.624</ele>
        <time>2012-08-10T10:31:31Z</time>
      </trkpt>
    </trkseg>
  </trk>
  <trk>
    <name><![CDATA[ACTIVE LOG192301]]></name>
    <trkseg>
      <trkpt lat="43.81614" lon="3.69114">
        <ele>98.667</ele>
        <time>2012-08-10T17:23:01Z</time>
      </trkpt>
    </trkseg>
  </trk>
</gpx>